createdAt,value
2019-05-10T00:05:41.526Z,92599.02
2019-05-10T00:16:15.161Z,92609.38
2019-05-10T00:26:48.525Z,92586.39
2019-05-10T00:37:22.273Z,92595.36
2019-05-10T00:47:55.844Z,92595.81
2019-05-10T00:58:29.661Z,92612.06
2019-05-10T01:09:03.462Z,92610.97
2019-05-10T01:19:37.012Z,92612.68
2019-05-10T01:30:10.571Z,92610.10
2019-05-10T01:40:44.038Z,92616.06
2019-05-10T01:51:17.541Z,92622.53
2019-05-10T02:01:51.219Z,92623.66
2019-05-10T02:12:24.663Z,92639.09
2019-05-10T02:22:58.129Z,92629.25
2019-05-10T02:33:31.980Z,92625.04
2019-05-10T02:44:05.725Z,92624.60
2019-05-10T02:54:39.202Z,92390.98
2019-05-10T03:05:14.071Z,92642.03
2019-05-10T03:15:50.463Z,92659.39
2019-05-10T03:26:23.334Z,92654.69
2019-05-10T03:36:56.173Z,92646.17
2019-05-10T03:47:29.958Z,92642.94
2019-05-10T03:58:03.521Z,92644.10
2019-05-10T04:08:36.986Z,92579.41
2019-05-10T04:19:10.521Z,92695.53
2019-05-10T04:29:44.360Z,92717.15
2019-05-10T04:40:17.841Z,92708.63
2019-05-10T04:50:51.647Z,92773.58
2019-05-10T05:01:25.290Z,92797.11
2019-05-10T05:11:58.073Z,92792.41
2019-05-10T05:22:31.541Z,92692.81
2019-05-10T05:33:05.030Z,92790.56
2019-05-10T05:43:45.744Z,92782.84
2019-05-10T05:54:14.971Z,92803.46
2019-05-10T06:04:50.001Z,92811.70
2019-05-10T06:15:29.085Z,92821.55
2019-05-10T06:25:58.454Z,92827.02
2019-05-10T06:36:32.024Z,92829.14
2019-05-10T06:47:08.213Z,92829.18
2019-05-10T06:57:41.137Z,92840.54
2019-05-10T07:08:19.953Z,92849.19
2019-05-10T07:18:49.147Z,92847.01
2019-05-10T07:29:29.924Z,92837.20
2019-05-10T07:39:58.656Z,92848.84
2019-05-10T07:50:32.210Z,92864.16
2019-05-10T08:01:05.768Z,92875.33
2019-05-10T08:11:39.342Z,92896.05
2019-05-10T08:22:14.798Z,92896.70
2019-05-10T08:32:47.647Z,92897.09
2019-05-10T08:43:22.240Z,92919.75
2019-05-10T08:53:58.397Z,92922.11
2019-05-10T09:04:41.632Z,92921.25
2019-05-10T09:15:10.181Z,92917.03
2019-05-10T09:25:42.736Z,92937.95
2019-05-10T09:36:16.474Z,92934.94
2019-05-10T09:46:52.311Z,92932.79
2019-05-10T09:57:27.716Z,92923.26
2019-05-10T10:08:03.712Z,92925.84
2019-05-10T10:18:37.102Z,92931.42
2019-05-10T10:29:10.772Z,92941.78
2019-05-10T10:39:44.237Z,92938.62
2019-05-10T10:50:18.040Z,92949.89
2019-05-10T11:00:55.532Z,92956.95
2019-05-10T11:11:32.498Z,92966.44
2019-05-10T11:22:09.497Z,92966.28
2019-05-10T11:32:41.809Z,92973.45
2019-05-10T11:43:17.398Z,92972.46
2019-05-10T11:53:55.409Z,92951.00
2019-05-10T12:04:37.998Z,92956.40
2019-05-10T12:15:04.420Z,92974.80
2019-05-10T12:25:51.490Z,92964.45
2019-05-10T12:36:22.359Z,92965.42
2019-05-10T12:46:47.033Z,92973.82
2019-05-10T12:57:20.742Z,92966.02
2019-05-10T13:07:53.634Z,92971.22
2019-05-10T13:18:48.274Z,92979.45
2019-05-10T13:29:08.114Z,92995.33
2019-05-10T13:39:37.593Z,92983.43
2019-05-10T13:50:10.316Z,93001.34
2019-05-10T14:00:44.021Z,92994.77
2019-05-10T14:11:17.652Z,93005.66
2019-05-10T14:21:50.562Z,93009.33
2019-05-10T14:32:24.206Z,93013.00
2019-05-10T14:42:57.572Z,93008.52
2019-05-10T14:53:31.123Z,93018.14
2019-05-10T15:04:04.553Z,93015.02
2019-05-10T15:14:38.222Z,93014.20
2019-05-10T15:25:11.801Z,93006.48
2019-05-10T15:35:45.721Z,93007.11
2019-05-10T15:46:23.248Z,93007.06
2019-05-10T15:56:56.094Z,93005.69
2019-05-10T16:07:29.496Z,93005.69
2019-05-10T16:18:02.402Z,93018.09
2019-05-10T16:28:36.068Z,93018.56
2019-05-10T16:39:09.632Z,93022.35
2019-05-10T16:49:47.650Z,93020.98
2019-05-10T17:00:19.388Z,93024.92
2019-05-10T17:10:52.880Z,93035.54
2019-05-10T17:21:26.320Z,93047.77
2019-05-10T17:31:59.955Z,93061.89
2019-05-10T17:42:35.618Z,93067.91
2019-05-10T17:53:08.485Z,93072.41
2019-05-10T18:03:42.174Z,93084.11
2019-05-10T18:14:18.059Z,93093.75
2019-05-10T18:24:51.333Z,93102.58
2019-05-10T18:35:24.829Z,93110.33
2019-05-10T18:46:01.335Z,93119.59
2019-05-10T18:56:34.025Z,93141.25
2019-05-10T19:07:10.277Z,93140.78
2019-05-10T19:17:45.827Z,93142.78
2019-05-10T19:28:20.883Z,93155.52
2019-05-10T19:38:53.311Z,93152.95
2019-05-10T19:49:27.927Z,93151.65
2019-05-10T20:00:01.597Z,93161.17
2019-05-10T20:10:36.223Z,93153.65
2019-05-10T20:21:09.924Z,93163.78
2019-05-10T20:31:43.869Z,93176.22
2019-05-10T20:42:17.376Z,93186.54
2019-05-10T20:52:50.128Z,93185.31
2019-05-10T21:03:23.706Z,93191.05
2019-05-10T21:13:57.970Z,93197.16
2019-05-10T21:24:31.340Z,93208.61
2019-05-10T21:35:04.853Z,93206.74
2019-05-10T21:45:38.435Z,93210.98
2019-05-10T21:56:11.996Z,93221.13
2019-05-10T22:06:45.351Z,93229.91
2019-05-10T22:17:18.838Z,93227.84
2019-05-10T22:27:52.485Z,93227.55
2019-05-10T22:38:25.986Z,93223.78
2019-05-10T22:48:59.449Z,93239.44
2019-05-10T22:59:32.215Z,93235.76
2019-05-10T23:10:05.733Z,93232.73
2019-05-10T23:20:39.405Z,93234.80
2019-05-10T23:41:51.576Z,93237.75
2019-05-10T23:52:25.144Z,93238.58
